Time;durP1;ratioP1;P1;durP2;ratioP2;P2;SDS_P1;SDS_P2;PMS_P1;PMS_P2;Temp;Humidity;BMP_temperature;BMP_pressure;BME280_temperature;BME280_humidity;BME280_pressure;Samples;Min_cycle;Max_cycle;Signal;HPM_P1;HPM_P2
2024/01/31 00:01:39;;;;;;;;;;;;;;;5.30;100.00;103329.00;5026880;28;1215;-77
2024/01/31 00:04:04;;;;;;;;;;;;;;;5.29;100.00;103330.72;5007767;28;1972;-77
2024/01/31 00:06:30;;;;;;;;;;;;;;;5.30;100.00;103329.84;5032869;28;1452;-77
2024/01/31 00:08:56;;;;;;;;;;;;;;;5.28;100.00;103329.03;5024687;28;1343;-77
2024/01/31 00:11:22;;;;;;;;;;;;;;;5.30;100.00;103337.56;5005698;28;1173;-77
2024/01/31 00:13:47;;;;;;;;;;;;;;;5.30;100.00;103332.41;5010458;28;1054;-77
2024/01/31 00:16:15;;;;;;;;;;;;;;;5.29;100.00;103338.44;5004212;28;1132;-77
2024/01/31 00:18:40;;;;;;;;;;;;;;;5.30;100.00;103340.13;5030643;28;1084;-77
2024/01/31 00:21:05;;;;;;;;;;;;;;;5.28;100.00;103336.75;5008515;28;1284;-78
2024/01/31 00:23:31;;;;;;;;;;;;;;;5.27;100.00;103342.75;4999107;28;1975;-77
2024/01/31 00:25:57;;;;;;;;;;;;;;;5.26;100.00;103346.22;5002020;28;1180;-77
2024/01/31 00:28:22;;;;;;;;;;;;;;;5.27;100.00;103358.19;5016266;28;1160;-77
2024/01/31 00:30:48;;;;;;;;;;;;;;;5.21;100.00;103368.59;5023954;28;1395;-77
2024/01/31 00:33:13;;;;;;;;;;;;;;;5.20;100.00;103360.91;5009775;28;1355;-77
2024/01/31 00:35:38;;;;;;;;;;;;;;;5.18;100.00;103368.69;5015834;28;1178;-77
2024/01/31 00:38:03;;;;;;;;;;;;;;;5.18;100.00;103371.25;5029623;28;1154;-77
2024/01/31 00:40:28;;;;;;;;;;;;;;;5.21;100.00;103378.06;5004956;28;1190;-77
2024/01/31 00:42:54;;;;;;;;;;;;;;;5.12;100.00;103379.06;5014608;28;1987;-77
2024/01/31 00:45:19;;;;;;;;;;;;;;;5.19;100.00;103375.50;5000160;28;1157;-77
2024/01/31 00:47:44;;;;;;;;;;;;;;;5.06;100.00;103384.34;5013860;28;1089;-77
2024/01/31 00:50:12;;;;;;;;;;;;;;;5.05;100.00;103377.50;5014251;28;1151;-78
2024/01/31 00:52:37;;;;;;;;;;;;;;;5.04;100.00;103383.50;5026055;28;1616;-78
2024/01/31 00:55:03;;;;;;;;;;;;;;;5.05;100.00;103377.50;5008589;28;1266;-77
2024/01/31 00:57:28;;;;;;;;;;;;;;;5.05;100.00;103385.22;5024724;28;1094;-77
2024/01/31 00:59:53;;;;;;;;;;;;;;;5.06;100.00;103389.47;5013014;28;1247;-77
2024/01/31 01:02:18;;;;;;;;;;;;;;;5.07;100.00;103380.88;4999921;28;1907;-77
2024/01/31 01:04:44;;;;;;;;;;;;;;;5.07;100.00;103386.88;5009172;28;1477;-77
2024/01/31 01:07:09;;;;;;;;;;;;;;;5.06;100.00;103392.06;4999299;28;1136;-77
2024/01/31 01:09:34;;;;;;;;;;;;;;;5.05;100.00;103395.50;5011191;28;1441;-78
2024/01/31 01:12:00;;;;;;;;;;;;;;;5.02;100.00;103387.81;5008005;28;1340;-77
2024/01/31 01:14:25;;;;;;;;;;;;;;;5.02;100.00;103398.09;5003650;28;1380;-77
2024/01/31 01:16:50;;;;;;;;;;;;;;;5.02;100.00;103392.97;5009124;28;1073;-77
2024/01/31 01:19:15;;;;;;;;;;;;;;;5.02;100.00;103392.97;5017748;28;1168;-77
2024/01/31 01:21:40;;;;;;;;;;;;;;;5.04;100.00;103392.06;5010306;28;1066;-77
2024/01/31 01:24:06;;;;;;;;;;;;;;;5.05;100.00;103387.78;5004723;28;1945;-77
2024/01/31 01:26:31;;;;;;;;;;;;;;;5.06;100.00;103390.31;5003043;28;1220;-78
2024/01/31 01:28:56;;;;;;;;;;;;;;;5.05;100.00;103388.63;5003566;28;1220;-77
2024/01/31 01:31:21;;;;;;;;;;;;;;;5.06;100.00;103389.47;5005801;28;1273;-77
2024/01/31 01:33:46;;;;;;;;;;;;;;;5.04;100.00;103386.06;5002714;28;1224;-77
2024/01/31 01:36:12;;;;;;;;;;;;;;;5.05;100.00;103388.63;5002171;28;1396;-77
2024/01/31 01:38:37;;;;;;;;;;;;;;;5.06;100.00;103389.47;5019294;28;1425;-77
2024/01/31 01:41:03;;;;;;;;;;;;;;;5.06;100.00;103389.47;5014080;28;1211;-77
2024/01/31 01:43:28;;;;;;;;;;;;;;;5.03;100.00;103389.50;4997598;28;1902;-77
2024/01/31 01:45:56;;;;;;;;;;;;;;;5.04;100.00;103391.22;5002798;28;1341;-77
2024/01/31 01:48:22;;;;;;;;;;;;;;;5.05;100.00;103382.63;5011837;28;1209;-77
2024/01/31 01:50:47;;;;;;;;;;;;;;;5.05;100.00;103380.06;5015027;28;1255;-77
2024/01/31 01:53:12;;;;;;;;;;;;;;;5.03;100.00;103384.38;5006231;28;1242;-77
2024/01/31 01:55:38;;;;;;;;;;;;;;;5.05;100.00;103385.22;5006821;28;1482;-77
2024/01/31 01:58:03;;;;;;;;;;;;;;;5.03;100.00;103379.22;5002342;28;1105;-77
2024/01/31 02:00:31;;;;;;;;;;;;;;;5.04;100.00;103380.91;5004911;28;1184;-77
2024/01/31 02:02:56;;;;;;;;;;;;;;;5.03;100.00;103379.22;5021798;28;1986;-77
2024/01/31 02:05:21;;;;;;;;;;;;;;;5.02;100.00;103377.53;5015717;28;1114;-78
2024/01/31 02:07:47;;;;;;;;;;;;;;;5.00;100.00;103380.13;5011441;28;1341;-78
2024/01/31 02:10:13;;;;;;;;;;;;;;;5.00;100.00;103384.44;4999460;28;1182;-78
2024/01/31 02:12:38;;;;;;;;;;;;;;;4.97;100.00;103390.47;4998716;28;1547;-77
2024/01/31 02:15:04;;;;;;;;;;;;;;;4.98;100.00;103386.16;5001123;28;1147;-77
2024/01/31 02:17:30;;;;;;;;;;;;;;;4.96;100.00;103382.78;5008389;28;2310;-78
2024/01/31 02:19:55;;;;;;;;;;;;;;;4.95;100.00;103381.09;5011899;28;1076;-77
2024/01/31 02:22:20;;;;;;;;;;;;;;;4.95;100.00;103378.53;5018005;28;1961;-78
2024/01/31 02:24:45;;;;;;;;;;;;;;;4.95;100.00;103375.94;5004349;28;1199;-78
2024/01/31 02:27:11;;;;;;;;;;;;;;;4.95;100.00;103375.94;4996617;28;1078;-77
2024/01/31 02:29:37;;;;;;;;;;;;;;;4.94;100.00;103380.25;5011852;28;1120;-78
2024/01/31 02:32:02;;;;;;;;;;;;;;;4.94;100.00;103389.69;5008865;28;1059;-77
2024/01/31 02:34:27;;;;;;;;;;;;;;;4.91;100.00;103384.59;5012563;28;1278;-77
2024/01/31 02:36:52;;;;;;;;;;;;;;;4.95;100.00;103386.25;4993341;28;1184;-77
2024/01/31 02:39:19;;;;;;;;;;;;;;;4.91;100.00;103384.59;5004241;28;1145;-77
2024/01/31 02:41:44;;;;;;;;;;;;;;;4.85;100.00;103374.41;5004192;28;1358;-77
2024/01/31 02:44:09;;;;;;;;;;;;;;;4.87;100.00;103375.22;5002765;28;1955;-77
2024/01/31 02:46:34;;;;;;;;;;;;;;;4.85;100.00;103374.41;4992795;28;1081;-81
2024/01/31 02:49:00;;;;;;;;;;;;;;;4.84;100.00;103375.28;5011320;28;1294;-78
2024/01/31 02:51:25;;;;;;;;;;;;;;;4.80;100.00;103362.47;5010013;28;1101;-77
2024/01/31 02:53:50;;;;;;;;;;;;;;;4.80;100.00;103372.75;5007695;28;1098;-77
2024/01/31 02:56:15;;;;;;;;;;;;;;;4.81;100.00;103368.44;5007804;28;1242;-77
2024/01/31 02:58:41;;;;;;;;;;;;;;;4.80;100.00;103365.03;5004071;28;1042;-77
2024/01/31 03:01:06;;;;;;;;;;;;;;;4.80;100.00;103362.47;5009203;28;1149;-77
2024/01/31 03:03:31;;;;;;;;;;;;;;;4.84;100.00;103357.28;5008105;28;1940;-76
2024/01/31 03:05:56;;;;;;;;;;;;;;;4.85;100.00;103353.84;5025954;28;1152;-77
2024/01/31 03:08:22;;;;;;;;;;;;;;;4.86;100.00;103350.38;5015687;28;1463;-77
2024/01/31 03:10:47;;;;;;;;;;;;;;;4.87;100.00;103352.06;5010605;28;1187;-77
2024/01/31 03:13:12;;;;;;;;;;;;;;;4.86;100.00;103350.38;5004960;28;1093;-76
2024/01/31 03:15:37;;;;;;;;;;;;;;;4.86;100.00;103345.25;5001211;28;1378;-78
2024/01/31 03:18:02;;;;;;;;;;;;;;;4.87;100.00;103341.78;5008325;28;1071;-77
2024/01/31 03:20:28;;;;;;;;;;;;;;;4.88;100.00;103349.50;5009429;28;1122;-77
2024/01/31 03:22:53;;;;;;;;;;;;;;;4.87;100.00;103341.78;5003741;28;1929;-78
2024/01/31 03:25:18;;;;;;;;;;;;;;;4.87;100.00;103341.78;5016314;28;1189;-78
2024/01/31 03:27:43;;;;;;;;;;;;;;;4.87;100.00;103337.50;5009801;28;1183;-77
2024/01/31 03:30:09;;;;;;;;;;;;;;;4.89;100.00;103340.06;5010026;28;1625;-78
2024/01/31 03:32:34;;;;;;;;;;;;;;;4.87;100.00;103344.34;5008049;28;1297;-77
2024/01/31 03:34:59;;;;;;;;;;;;;;;4.85;100.00;103343.53;5012111;28;1192;-78
2024/01/31 03:37:24;;;;;;;;;;;;;;;4.84;100.00;103332.41;5029756;28;1167;-78
2024/01/31 03:39:49;;;;;;;;;;;;;;;4.87;100.00;103336.63;5013139;28;1248;-78
2024/01/31 03:42:14;;;;;;;;;;;;;;;4.89;100.00;103324.63;5014567;28;1914;-77
2024/01/31 03:44:40;;;;;;;;;;;;;;;4.91;100.00;103333.16;5018057;28;1336;-78
2024/01/31 03:47:05;;;;;;;;;;;;;;;4.91;100.00;103328.00;5019718;28;1177;-78
2024/01/31 03:49:30;;;;;;;;;;;;;;;4.86;100.00;103325.50;5015411;28;1353;-78
2024/01/31 03:51:56;;;;;;;;;;;;;;;4.84;100.00;103329.00;5013125;28;1088;-78
2024/01/31 03:54:21;;;;;;;;;;;;;;;4.82;100.00;103317.88;5012143;28;1173;-78
2024/01/31 03:56:46;;;;;;;;;;;;;;;4.85;100.00;103321.25;5005604;28;1179;-78
2024/01/31 03:59:11;;;;;;;;;;;;;;;4.87;100.00;103331.50;5015219;28;1210;-83
2024/01/31 04:01:36;;;;;;;;;;;;;;;4.82;100.00;103320.44;5028680;28;1772;-78
2024/01/31 04:04:02;;;;;;;;;;;;;;;4.84;100.00;103323.84;5012544;28;1965;-78
2024/01/31 04:06:27;;;;;;;;;;;;;;;4.86;100.00;103328.09;5012959;28;1086;-78
2024/01/31 04:08:52;;;;;;;;;;;;;;;4.84;100.00;103314.41;5012196;28;1082;-79
2024/01/31 04:11:18;;;;;;;;;;;;;;;4.84;100.00;103309.28;5013803;28;1116;-78
2024/01/31 04:13:44;;;;;;;;;;;;;;;4.84;100.00;103316.13;5010092;28;1237;-78
2024/01/31 04:16:14;;;;;;;;;;;;;;;4.85;100.00;103312.69;5004416;28;1078;-78
2024/01/31 04:18:39;;;;;;;;;;;;;;;4.83;100.00;103309.31;5001454;28;1097;-78
2024/01/31 04:21:04;;;;;;;;;;;;;;;4.82;100.00;103312.72;5014969;28;1164;-78
2024/01/31 04:23:29;;;;;;;;;;;;;;;4.81;100.00;103309.31;5030464;28;1989;-78
2024/01/31 04:25:54;;;;;;;;;;;;;;;4.81;100.00;103301.59;5011803;28;1142;-78
2024/01/31 04:28:21;;;;;;;;;;;;;;;4.83;100.00;103309.31;5012597;28;1081;-78
2024/01/31 04:30:46;;;;;;;;;;;;;;;4.80;100.00;103305.91;5007815;28;1092;-78
2024/01/31 04:33:11;;;;;;;;;;;;;;;4.78;100.00;103311.94;5003349;28;1192;-78
2024/01/31 04:35:37;;;;;;;;;;;;;;;4.76;100.00;103314.56;5007160;28;1351;-78
2024/01/31 04:38:02;;;;;;;;;;;;;;;4.77;100.00;103305.97;5023542;28;1115;-78
2024/01/31 04:40:27;;;;;;;;;;;;;;;4.77;100.00;103302.56;5009604;28;1121;-77
2024/01/31 04:42:52;;;;;;;;;;;;;;;4.79;100.00;103309.34;5027209;28;1981;-78
2024/01/31 04:45:17;;;;;;;;;;;;;;;4.76;100.00;103306.84;5013705;28;1124;-77
2024/01/31 04:47:43;;;;;;;;;;;;;;;4.75;100.00;103307.69;5000137;28;1483;-78
2024/01/31 04:50:09;;;;;;;;;;;;;;;4.75;100.00;103302.56;5013238;28;1179;-78
2024/01/31 04:52:34;;;;;;;;;;;;;;;4.74;100.00;103311.16;5002297;28;1170;-78
2024/01/31 04:54:59;;;;;;;;;;;;;;;4.76;100.00;103314.56;5004105;28;1140;-78
2024/01/31 04:57:24;;;;;;;;;;;;;;;4.73;100.00;103314.59;5019568;28;1342;-78
2024/01/31 04:59:49;;;;;;;;;;;;;;;4.72;100.00;103312.91;5000825;28;1186;-77
2024/01/31 05:02:15;;;;;;;;;;;;;;;4.74;100.00;103316.28;5003592;28;1914;-78
2024/01/31 05:04:40;;;;;;;;;;;;;;;4.75;100.00;103306.84;5010410;28;1348;-78
2024/01/31 05:07:05;;;;;;;;;;;;;;;4.75;100.00;103312.84;5006403;28;1372;-77
2024/01/31 05:09:31;;;;;;;;;;;;;;;4.72;100.00;103312.91;5004201;28;1172;-77
2024/01/31 05:11:57;;;;;;;;;;;;;;;4.73;100.00;103308.63;5005806;28;1425;-77
2024/01/31 05:14:22;;;;;;;;;;;;;;;4.73;100.00;103304.31;5003480;28;1534;-77
2024/01/31 05:16:47;;;;;;;;;;;;;;;4.73;100.00;103309.47;5008680;28;1416;-77
2024/01/31 05:19:13;;;;;;;;;;;;;;;4.74;100.00;103300.88;5002841;28;1649;-77
2024/01/31 05:21:45;;;;;;;;;;;;;;;4.74;100.00;103311.16;5001213;28;2062;-76
2024/01/31 05:24:10;;;;;;;;;;;;;;;4.73;100.00;103314.59;5000341;28;1910;-76
2024/01/31 05:26:35;;;;;;;;;;;;;;;4.73;100.00;103314.59;5001673;28;1158;-77
2024/01/31 05:29:01;;;;;;;;;;;;;;;4.75;100.00;103307.69;5016887;28;1101;-76
2024/01/31 05:31:26;;;;;;;;;;;;;;;4.76;100.00;103309.41;5002131;28;1071;-76
2024/01/31 05:33:51;;;;;;;;;;;;;;;4.79;100.00;103313.66;5025847;28;1536;-76
2024/01/31 05:36:16;;;;;;;;;;;;;;;4.78;100.00;103312.81;5002811;28;1209;-75
2024/01/31 05:38:42;;;;;;;;;;;;;;;4.77;100.00;103307.69;5004049;28;1177;-75
2024/01/31 05:41:07;;;;;;;;;;;;;;;4.77;100.00;103316.25;5003913;28;1201;-76
2024/01/31 05:43:32;;;;;;;;;;;;;;;4.76;100.00;103314.56;5005459;28;1891;-75
2024/01/31 05:45:57;;;;;;;;;;;;;;;4.76;100.00;103309.41;5009553;28;1136;-75
2024/01/31 05:48:22;;;;;;;;;;;;;;;4.76;100.00;103308.56;5010099;28;1348;-75
2024/01/31 05:50:48;;;;;;;;;;;;;;;4.75;100.00;103307.69;5019867;28;1267;-76
2024/01/31 05:53:13;;;;;;;;;;;;;;;4.75;100.00;103302.56;5007485;28;1130;-75
2024/01/31 05:55:38;;;;;;;;;;;;;;;4.73;100.00;103304.31;5002800;28;1321;-75
2024/01/31 05:58:03;;;;;;;;;;;;;;;4.73;100.00;103313.75;5003737;28;1318;-75
2024/01/31 06:00:28;;;;;;;;;;;;;;;4.72;100.00;103307.78;5008157;28;1252;-75
2024/01/31 06:02:54;;;;;;;;;;;;;;;4.74;100.00;103311.16;5000004;28;1914;-74
2024/01/31 06:05:19;;;;;;;;;;;;;;;4.76;100.00;103313.72;5022472;28;1289;-77
2024/01/31 06:07:44;;;;;;;;;;;;;;;4.75;100.00;103302.56;5018642;28;1259;-75
2024/01/31 06:10:09;;;;;;;;;;;;;;;4.73;100.00;103299.19;5012126;28;1125;-75
2024/01/31 06:12:35;;;;;;;;;;;;;;;4.74;100.00;103295.72;5015270;28;1225;-77
2024/01/31 06:15:00;;;;;;;;;;;;;;;4.75;100.00;103292.28;5006418;28;1080;-75
2024/01/31 06:17:25;;;;;;;;;;;;;;;4.75;100.00;103282.00;5001568;28;1254;-77
2024/01/31 06:19:50;;;;;;;;;;;;;;;4.77;100.00;103282.84;5004340;28;1204;-76
2024/01/31 06:22:17;;;;;;;;;;;;;;;4.74;100.00;103275.16;5010793;28;1902;-76
2024/01/31 06:24:42;;;;;;;;;;;;;;;4.71;100.00;103274.38;5002098;28;1396;-76
2024/01/31 06:27:08;;;;;;;;;;;;;;;4.68;100.00;103272.69;5007725;28;1144;-79
2024/01/31 06:29:33;;;;;;;;;;;;;;;4.67;100.00;103273.56;5022267;28;1443;-76
2024/01/31 06:32:00;;;;;;;;;;;;;;;4.67;100.00;103262.44;4999343;28;994;-76
2024/01/31 06:34:25;;;;;;;;;;;;;;;4.67;100.00;103247.88;4999532;28;1194;-76
2024/01/31 06:36:50;;;;;;;;;;;;;;;4.70;100.00;103242.69;5005055;28;1033;-76
2024/01/31 06:39:15;;;;;;;;;;;;;;;4.69;100.00;103246.09;5003613;28;1251;-76
2024/01/31 06:41:41;;;;;;;;;;;;;;;4.68;100.00;103244.41;5004664;28;1138;-76
2024/01/31 06:44:06;;;;;;;;;;;;;;;4.67;100.00;103247.88;5022815;28;1898;-77
2024/01/31 06:46:31;;;;;;;;;;;;;;;4.66;100.00;103256.47;4997114;28;1149;-76
2024/01/31 06:48:57;;;;;;;;;;;;;;;4.66;100.00;103250.47;5009866;28;1183;-76
2024/01/31 06:51:22;;;;;;;;;;;;;;;4.67;100.00;103257.31;4995957;28;1087;-76
2024/01/31 06:53:47;;;;;;;;;;;;;;;4.67;100.00;103260.72;5001912;28;1117;-76
2024/01/31 06:56:19;;;;;;;;;;;;;;;4.68;100.00;103270.13;5003256;28;1058;-76
2024/01/31 06:58:45;;;;;;;;;;;;;;;4.66;100.00;103284.75;5009443;28;1011;-76
2024/01/31 07:01:13;;;;;;;;;;;;;;;4.66;100.00;103291.59;5014534;28;1257;-76
2024/01/31 07:03:38;;;;;;;;;;;;;;;4.66;100.00;103313.00;5011934;28;1963;-75
2024/01/31 07:06:03;;;;;;;;;;;;;;;4.67;100.00;103330.13;5009957;28;1089;-76
2024/01/31 07:08:29;;;;;;;;;;;;;;;4.70;100.00;103335.22;5008373;28;1170;-76
2024/01/31 07:10:54;;;;;;;;;;;;;;;4.68;100.00;103339.53;5004071;28;1124;-76
2024/01/31 07:13:19;;;;;;;;;;;;;;;4.69;100.00;103348.94;5008812;28;1490;-76
2024/01/31 07:15:44;;;;;;;;;;;;;;;4.69;100.00;103348.94;5004748;28;1589;-77
2024/01/31 07:18:09;;;;;;;;;;;;;;;4.69;100.00;103343.78;5005116;28;1155;-76
2024/01/31 07:20:34;;;;;;;;;;;;;;;4.69;100.00;103354.06;5006001;28;1225;-77
2024/01/31 07:23:00;;;;;;;;;;;;;;;4.69;100.00;103354.06;4994285;28;1938;-76
2024/01/31 07:25:25;;;;;;;;;;;;;;;4.70;100.00;103350.66;5001292;28;1063;-76
2024/01/31 07:27:50;;;;;;;;;;;;;;;4.71;100.00;103362.63;5011742;28;1192;-76
2024/01/31 07:30:15;;;;;;;;;;;;;;;4.71;100.00;103362.63;5002297;28;1345;-76
2024/01/31 07:32:40;;;;;;;;;;;;;;;4.70;100.00;103371.22;5004581;28;1173;-76
2024/01/31 07:35:09;;;;;;;;;;;;;;;4.71;100.00;103365.19;5001541;28;1190;-77
2024/01/31 07:37:37;;;;;;;;;;;;;;;4.71;100.00;103366.94;5000809;28;967;-75
2024/01/31 07:40:06;;;;;;;;;;;;;;;4.70;100.00;103375.50;5017436;28;1530;-77
2024/01/31 07:42:32;;;;;;;;;;;;;;;4.69;100.00;103369.50;5002556;28;1894;-75
2024/01/31 07:44:57;;;;;;;;;;;;;;;4.71;100.00;103377.22;5011466;28;1453;-76
2024/01/31 07:47:22;;;;;;;;;;;;;;;4.69;100.00;103374.63;5008467;28;1166;-76
2024/01/31 07:49:47;;;;;;;;;;;;;;;4.69;100.00;103369.50;5010207;28;1197;-77
2024/01/31 07:52:12;;;;;;;;;;;;;;;4.69;100.00;103364.34;5009980;28;1185;-76
2024/01/31 07:54:39;;;;;;;;;;;;;;;4.69;100.00;103372.06;5004168;28;1485;-75
2024/01/31 07:57:04;;;;;;;;;;;;;;;4.71;100.00;103362.63;5005287;28;1246;-76
2024/01/31 07:59:29;;;;;;;;;;;;;;;4.70;100.00;103363.50;5004873;28;1210;-75
2024/01/31 08:01:54;;;;;;;;;;;;;;;4.72;100.00;103379.75;5016012;28;1327;-77
2024/01/31 08:04:19;;;;;;;;;;;;;;;4.73;100.00;103366.00;5014788;28;1902;-75
2024/01/31 08:06:45;;;;;;;;;;;;;;;4.76;100.00;103376.25;5020891;28;1326;-78
2024/01/31 08:09:10;;;;;;;;;;;;;;;4.76;100.00;103360.84;5010807;28;1098;-76
2024/01/31 08:11:42;;;;;;;;;;;;;;;4.77;100.00;103352.25;5002868;28;1346;-77
2024/01/31 08:14:07;;;;;;;;;;;;;;;4.77;100.00;103347.09;4999870;28;1192;-76
2024/01/31 08:16:33;;;;;;;;;;;;;;;4.78;100.00;103356.50;5006065;28;1469;-76
2024/01/31 08:18:58;;;;;;;;;;;;;;;4.78;100.00;103348.78;5004630;28;1156;-76
2024/01/31 08:21:23;;;;;;;;;;;;;;;4.78;100.00;103348.78;5002286;28;1111;-75
2024/01/31 08:23:50;;;;;;;;;;;;;;;4.80;100.00;103353.91;5007970;28;1898;-76
2024/01/31 08:26:16;;;;;;;;;;;;;;;4.80;100.00;103349.59;4999817;28;1082;-77
2024/01/31 08:28:41;;;;;;;;;;;;;;;4.79;100.00;103345.34;4998363;28;1137;-77
2024/01/31 08:31:06;;;;;;;;;;;;;;;4.79;100.00;103340.19;5002505;28;1289;-76
2024/01/31 08:33:31;;;;;;;;;;;;;;;4.82;100.00;103343.59;5006516;28;1339;-76
2024/01/31 08:35:56;;;;;;;;;;;;;;;4.83;100.00;103346.16;5005134;28;1463;-76
2024/01/31 08:38:23;;;;;;;;;;;;;;;4.83;100.00;103335.03;5003168;28;1371;-76
2024/01/31 08:40:48;;;;;;;;;;;;;;;4.83;100.00;103340.16;5006153;28;1179;-77
2024/01/31 08:43:13;;;;;;;;;;;;;;;4.84;100.00;103336.72;5011865;28;1890;-76
2024/01/31 08:45:39;;;;;;;;;;;;;;;4.86;100.00;103329.81;5007899;28;1424;-76
2024/01/31 08:48:04;;;;;;;;;;;;;;;4.87;100.00;103326.34;5028360;28;1648;-76
2024/01/31 08:50:29;;;;;;;;;;;;;;;4.90;100.00;103316.03;5006275;28;1177;-76
2024/01/31 08:52:54;;;;;;;;;;;;;;;4.92;100.00;103315.13;5012962;28;1370;-80
2024/01/31 08:55:20;;;;;;;;;;;;;;;4.94;100.00;103304.81;5003586;28;1037;-76
2024/01/31 08:57:45;;;;;;;;;;;;;;;4.94;100.00;103302.25;5006591;28;998;-76
2024/01/31 09:00:10;;;;;;;;;;;;;;;4.95;100.00;103303.94;5002951;28;1314;-76
2024/01/31 09:02:35;;;;;;;;;;;;;;;4.94;100.00;103297.09;4998694;28;1969;-76
2024/01/31 09:05:01;;;;;;;;;;;;;;;4.95;100.00;103294.50;5012198;28;1336;-77
2024/01/31 09:07:26;;;;;;;;;;;;;;;4.96;100.00;103301.34;5001947;28;1357;-76
2024/01/31 09:09:51;;;;;;;;;;;;;;;4.96;100.00;103292.78;5008079;28;1298;-76
2024/01/31 09:12:16;;;;;;;;;;;;;;;4.99;100.00;103285.03;5004606;28;1557;-76
2024/01/31 09:14:42;;;;;;;;;;;;;;;5.00;100.00;103281.56;5005815;28;1060;-76
2024/01/31 09:17:07;;;;;;;;;;;;;;;5.02;100.00;103280.66;5009832;28;1303;-76
2024/01/31 09:19:32;;;;;;;;;;;;;;;5.04;100.00;103278.03;5018018;28;1351;-76
2024/01/31 09:21:57;;;;;;;;;;;;;;;5.05;100.00;103269.47;4996219;28;1210;-77
2024/01/31 09:24:22;;;;;;;;;;;;;;;5.06;100.00;103266.84;5013195;28;1922;-76
2024/01/31 09:26:48;;;;;;;;;;;;;;;5.08;100.00;103266.81;5012223;28;1032;-76
2024/01/31 09:29:13;;;;;;;;;;;;;;;5.09;100.00;103271.09;5001635;28;1133;-76
2024/01/31 09:31:38;;;;;;;;;;;;;;;5.11;100.00;103264.19;5004883;28;1194;-77
2024/01/31 09:34:03;;;;;;;;;;;;;;;5.12;100.00;103259.91;5011821;28;1370;-76
2024/01/31 09:36:29;;;;;;;;;;;;;;;5.12;100.00;103250.47;5006819;28;1148;-77
2024/01/31 09:38:55;;;;;;;;;;;;;;;5.16;100.00;103246.94;5010550;28;1091;-76
2024/01/31 09:41:20;;;;;;;;;;;;;;;5.18;100.00;103239.19;5008998;28;1180;-77
2024/01/31 09:43:46;;;;;;;;;;;;;;;5.22;100.00;103249.41;5006675;28;1914;-77
2024/01/31 09:46:11;;;;;;;;;;;;;;;5.23;100.00;103251.09;5004687;28;1181;-77
2024/01/31 09:48:37;;;;;;;;;;;;;;;5.26;100.00;103252.75;5013251;28;1271;-76
2024/01/31 09:51:03;;;;;;;;;;;;;;;5.27;100.00;103263.00;5023340;28;1408;-76
2024/01/31 09:53:28;;;;;;;;;;;;;;;5.29;100.00;103268.97;5011483;28;1340;-76
2024/01/31 09:55:57;;;;;;;;;;;;;;;5.30;100.00;103270.66;5023867;28;2554;-76
2024/01/31 09:58:22;;;;;;;;;;;;;;;5.31;100.00;103262.06;5007976;28;1246;-76
2024/01/31 10:00:50;;;;;;;;;;;;;;;5.33;100.00;103262.91;5005922;28;1264;-76
2024/01/31 10:03:15;;;;;;;;;;;;;;;5.35;100.00;103262.00;5017638;28;1910;-76
2024/01/31 10:05:40;;;;;;;;;;;;;;;5.36;100.00;103258.56;4996686;28;1091;-76
2024/01/31 10:08:05;;;;;;;;;;;;;;;5.39;100.00;103266.19;5000917;28;1030;-76
2024/01/31 10:10:31;;;;;;;;;;;;;;;5.40;100.00;103270.50;5002376;28;1112;-76
2024/01/31 10:12:56;;;;;;;;;;;;;;;5.40;100.00;103278.22;5004894;28;1078;-76
2024/01/31 10:15:21;;;;;;;;;;;;;;;5.40;100.00;103275.63;5024770;28;1497;-76
2024/01/31 10:17:46;;;;;;;;;;;;;;;5.41;100.00;103277.31;4996016;28;1136;-76
2024/01/31 10:20:14;;;;;;;;;;;;;;;5.42;100.00;103279.00;5004534;28;1090;-76
2024/01/31 10:22:40;;;;;;;;;;;;;;;5.45;100.00;103284.09;5022154;28;1957;-77
2024/01/31 10:25:06;;;;;;;;;;;;;;;5.48;100.00;103289.19;5000453;28;1196;-76
2024/01/31 10:27:37;;;;;;;;;;;;;;;5.49;100.00;103276.28;5004672;28;1096;-76
2024/01/31 10:30:07;;;;;;;;;;;;;;;5.51;100.00;103283.97;5005784;28;1155;-76
2024/01/31 10:32:33;;;;;;;;;;;;;;;5.50;100.00;103277.13;5006442;28;1131;-76
2024/01/31 10:35:00;;;;;;;;;;;;;;;5.50;100.00;103279.69;5010108;28;1545;-77
2024/01/31 10:37:26;;;;;;;;;;;;;;;5.52;100.00;103280.53;5029480;28;1597;-77
2024/01/31 10:39:52;;;;;;;;;;;;;;;5.58;100.00;103285.53;5013068;28;1633;-77
2024/01/31 10:42:18;;;;;;;;;;;;;;;5.55;100.00;103283.00;5009353;28;1894;-76
2024/01/31 10:44:43;;;;;;;;;;;;;;;5.56;100.00;103282.13;5016419;28;1146;-76
2024/01/31 10:47:09;;;;;;;;;;;;;;;5.57;100.00;103269.25;5009766;28;1739;-76
2024/01/31 10:49:34;;;;;;;;;;;;;;;5.59;100.00;103266.63;5035565;28;1468;-76
2024/01/31 10:52:01;;;;;;;;;;;;;;;5.59;100.00;103271.78;5005933;28;954;-77
2024/01/31 10:54:29;;;;;;;;;;;;;;;5.60;100.00;103263.19;5004311;28;1138;-76
2024/01/31 10:56:55;;;;;;;;;;;;;;;5.64;100.00;103259.66;5016794;28;1191;-76
2024/01/31 10:59:20;;;;;;;;;;;;;;;5.63;100.00;103251.97;5007918;28;1094;-76
2024/01/31 11:01:49;;;;;;;;;;;;;;;5.64;100.00;103238.22;5006402;28;1244;-77
2024/01/31 11:04:14;;;;;;;;;;;;;;;5.66;100.00;103241.59;5007045;28;1914;-77
2024/01/31 11:06:40;;;;;;;;;;;;;;;5.68;100.00;103234.69;5019707;28;1251;-76
2024/01/31 11:09:06;;;;;;;;;;;;;;;5.70;100.00;103238.94;5007939;28;1399;-78
2024/01/31 11:11:32;;;;;;;;;;;;;;;5.70;100.00;103228.63;5013975;28;1451;-76
2024/01/31 11:14:06;;;;;;;;;;;;;;;5.71;100.00;103230.31;5001153;28;1162;-76
2024/01/31 11:16:31;;;;;;;;;;;;;;;5.72;100.00;103216.56;5004376;28;1149;-76
2024/01/31 11:18:58;;;;;;;;;;;;;;;5.73;100.00;103204.53;5007125;28;1332;-76
2024/01/31 11:21:23;;;;;;;;;;;;;;;5.72;100.00;103195.97;5008271;28;1279;-77
2024/01/31 11:23:48;;;;;;;;;;;;;;;5.71;100.00;103194.28;5004701;28;1965;-78
2024/01/31 11:26:14;;;;;;;;;;;;;;;5.72;100.00;103195.97;5008348;28;1382;-77
2024/01/31 11:28:41;;;;;;;;;;;;;;;5.72;100.00;103184.81;5014941;28;1168;-77
2024/01/31 11:31:07;;;;;;;;;;;;;;;5.72;100.00;103183.09;5012684;28;1081;-76
2024/01/31 11:33:32;;;;;;;;;;;;;;;5.71;100.00;103168.53;5008532;28;1210;-77
2024/01/31 11:35:57;;;;;;;;;;;;;;;5.72;100.00;103159.91;5004247;28;1330;-76
2024/01/31 11:38:22;;;;;;;;;;;;;;;5.74;100.00;103147.88;5008970;28;1252;-76
2024/01/31 11:40:47;;;;;;;;;;;;;;;5.76;100.00;103129.78;5012758;28;1523;-77
2024/01/31 11:43:14;;;;;;;;;;;;;;;5.83;100.00;103132.16;5015491;28;1894;-77
2024/01/31 11:45:39;;;;;;;;;;;;;;;5.80;100.00;103131.41;5005050;28;1404;-77
2024/01/31 11:48:07;;;;;;;;;;;;;;;5.76;100.00;103120.34;5020839;28;1077;-76
2024/01/31 11:50:32;;;;;;;;;;;;;;;5.78;100.00;103118.56;5012430;28;1136;-76
2024/01/31 11:52:57;;;;;;;;;;;;;;;5.82;100.00;103114.19;5017405;28;1651;-76
2024/01/31 11:55:23;;;;;;;;;;;;;;;5.77;100.00;103108.31;5000792;28;1038;-76
2024/01/31 11:57:51;;;;;;;;;;;;;;;5.75;100.00;103092.91;5010631;28;1378;-76
2024/01/31 12:00:16;;;;;;;;;;;;;;;5.77;100.00;103101.44;5017104;28;1133;-76
2024/01/31 12:02:42;;;;;;;;;;;;;;;5.75;100.00;103087.75;5007405;28;1964;-76
2024/01/31 12:05:08;;;;;;;;;;;;;;;5.78;100.00;103087.66;5024989;28;1353;-76
2024/01/31 12:07:33;;;;;;;;;;;;;;;5.78;100.00;103087.66;5002885;28;1189;-76
2024/01/31 12:09:59;;;;;;;;;;;;;;;5.86;100.00;103085.75;5010793;28;1093;-79
2024/01/31 12:12:26;;;;;;;;;;;;;;;5.84;100.00;103077.19;5012716;28;1121;-76
2024/01/31 12:14:52;;;;;;;;;;;;;;;5.77;100.00;103080.81;5021635;28;1184;-76
2024/01/31 12:17:20;;;;;;;;;;;;;;;5.76;100.00;103074.00;5026134;28;1365;-77
2024/01/31 12:19:46;;;;;;;;;;;;;;;5.86;100.00;103066.88;5008949;28;1184;-76
2024/01/31 12:22:11;;;;;;;;;;;;;;;5.80;100.00;103070.47;5023597;28;1226;-76
2024/01/31 12:24:37;;;;;;;;;;;;;;;5.80;100.00;103065.31;5013171;28;1905;-77
2024/01/31 12:27:02;;;;;;;;;;;;;;;5.81;100.00;103067.00;5008875;28;1321;-77
2024/01/31 12:29:27;;;;;;;;;;;;;;;5.79;100.00;103057.59;5005772;28;1189;-76
2024/01/31 12:31:53;;;;;;;;;;;;;;;5.84;100.00;103054.03;5005332;28;1160;-76
2024/01/31 12:34:18;;;;;;;;;;;;;;;5.74;100.00;103052.59;5028148;28;1132;-76
2024/01/31 12:36:43;;;;;;;;;;;;;;;5.78;100.00;103051.59;4999321;28;1179;-78
2024/01/31 12:39:08;;;;;;;;;;;;;;;5.79;100.00;103053.31;5003754;28;1220;-76